sim
Sign-in with your pilot id or email,
or register
Callsign
Passwort

Schedule Details

Flight Number: EWG2682 (2)
Departure: Stuttgart Airport (EDDS) at 08:40
Arrival: Thessaloniki International Airport (LGTS) at 11:00
Route: Eurowings Passenger Schedule. Enter filed route here before submitting Pirep.

Weather Information
Getting current METAR information for EDDS 252250Z 33005KT CAVOK 09/05 Q1011
Getting current METAR information for LGTS 252250Z VRB02KT CAVOK 15/12 Q1020 NOSIG

Schedule Frequency

Route Map